Overview Statistics Trail Chart Weather Telemetry Raw packets
 

This is the latest recevied weather packets stored in our database for station/object C31FR-13. If no packets are shown the sender has not sent any weather packets the latest 10 day(s).

<< 4 5 6 7 8 9 10 >>
Time Temp. Humidity Pressure Rain* Wind** Luminosity Snow
1788477062 22.78° C 40% 1027.4 hPa - - - -
1788476162 23.33° C 39% 1027.3 hPa - - - -
1788475562 23.33° C 39% 1027.2 hPa - - - -
1788474362 23.89° C 38% 1027.2 hPa - - - -
1788474063 23.89° C 38% 1027.1 hPa - - - -
1788472862 23.89° C 38% 1027.1 hPa - - - -
1788470763 24.44° C 36% 1027.1 hPa - - - -
1788469562 25° C 37% 1026.9 hPa - - - -
1788468662 25° C 35% 1026.8 hPa - - - -
1788467462 25.56° C 36% 1026.8 hPa - - - -
1788467162 25.56° C 36% 1026.7 hPa - - - -
1788466264 26.11° C 36% 1026.6 hPa - - - -
1788465963 26.11° C 36% 1026.5 hPa - - - -
1788464162 26.67° C 34% 1025.9 hPa - - - -
1788463862 26.67° C 34% 1025.7 hPa - - - -
1788462962 27.22° C 34% 1025.5 hPa - - - -
1788461762 27.78° C 33% 1025.2 hPa - - - -
1788461462 27.78° C 34% 1025.1 hPa - - - -
1788460563 28.33° C 35% 1024.7 hPa - - - -
1788458762 28.33° C 36% 1024.4 hPa - - - -
1788458462 29.44° C 36% 1024.4 hPa - - - -
1788454562 33.33° C 26% 1023.7 hPa - - - -
1788454262 32.78° C 26% 1023.7 hPa - - - -
1788453962 32.78° C 26% 1023.7 hPa - - - -
1788453062 33.33° C 25% 1023.6 hPa - - - -

* Rain since midnight (hover to see other rain measurements)
** Current wind speed in m/s (hover to see current wind gust speed)